Latest Weather Observations for Double Island Point

IDQ60901

Issued at 12:11 pm EST Tuesday 28 April 2015 (issued every 10 minutes, with the page automatically refreshed every 10 minutes)

About weather observations | Map of Brisbane area stations | Latest observations for Brisbane area | Other Formats
Station Details ID: 040068 Name: DOUBLE ISLAND POINT LIGHTHOUSE Lat: -25.93 Lon: 153.19 Height: 95.64 m
Data from the previous 72 hours. | See also: Recent months at Double Island Point
Date/Time
EST
Tmp

°C
App
Tmp
°C
Dew
Point
°C
Rel
Hum
%
Delta-T

°C
Wind Press
QNH
hPa
Press
MSL
hPa
Rain
since
9 am
mm
Dir
 
Spd
km/h
Gust
km/h
Spd
kts
Gust
kts
28/12:00pm 22.1 16.1 16.4 70 3.5 SSE 43 56 23 30 1020.0 1019.6 0.0
28/11:30am 22.0 16.1 15.8 68 3.7 SSE 41 52 22 28 1020.4 1020.0 0.0
28/11:00am 21.7 15.8 15.8 69 3.5 SSE 41 52 22 28 1020.7 1020.3 0.0
28/10:30am 21.7 16.2 15.8 69 3.6 SSE 39 50 21 27 1020.8 1020.4 0.0
28/10:00am 21.7 15.8 15.8 69 3.5 SSE 41 52 22 28 1020.9 1020.5 0.0
28/09:30am 21.2 14.8 15.3 69 3.5 SSE 43 52 23 28 1021.0 1020.6 0.0
28/09:00am 20.8 13.9 15.6 72 3.1 SSE 46 57 25 31 1020.7 1020.3 0.0
28/08:30am 20.2 13.7 15.2 73 3.0 S 43 52 23 28 1020.5 1020.1 0.0
28/08:00am 19.9 14.7 15.5 76 2.6 S 37 48 20 26 1020.4 1020.0 0.0
28/07:30am 19.4 15.0 15.1 76 2.5 S 32 39 17 21 1020.1 1019.7 0.0
28/07:00am 19.1 14.4 14.8 76 2.5 S 33 41 18 22 1019.8 1019.4 0.0
28/06:30am 19.1 13.9 14.6 75 2.6 S 35 43 19 23 1019.4 1019.0 0.0
28/06:00am 19.4 13.9 14.6 74 2.8 S 37 46 20 25 1018.9 1018.5 0.0
28/05:30am 19.7 13.5 14.9 74 2.8 SSE 41 50 22 27 1018.7 1018.3 0.0
28/05:00am 19.9 14.1 14.9 73 2.9 S 39 48 21 26 1018.5 1018.1 0.0
28/04:30am 19.7 15.1 14.5 72 3.0 S 32 39 17 21 1018.2 1017.8 0.0
28/04:00am 19.5 15.8 13.9 70 3.2 S 26 33 14 18 1017.9 1017.5 0.0
28/03:30am 19.1 15.1 13.1 68 3.4 S 26 30 14 16 1017.9 1017.5 0.0
28/03:00am 19.0 14.5 12.5 66 3.6 SSW 28 30 15 16 1018.1 1017.7 0.0
28/02:30am 19.2 15.4 12.5 65 3.8 S 24 28 13 15 1018.3 1017.9 0.0
28/02:00am 19.2 16.0 12.0 63 4.0 S 20 24 11 13 1018.2 1017.8 0.0
28/01:30am 19.3 15.8 12.3 64 3.9 S 22 24 12 13 1018.4 1018.0 0.0
28/01:00am 19.4 16.9 12.2 63 4.0 S 17 20 9 11 1018.3 1017.9 0.0
28/12:30am 19.7 16.7 12.7 64 4.0 S 20 24 11 13 1018.4 1018.0 0.0
28/12:00am 20.2 17.5 13.4 65 3.9 S 20 22 11 12 1018.5 1018.1 0.0
 
Date/Time
EST
Tmp

°C
App
Tmp
°C
Dew
Point
°C
Rel
Hum
%
Delta-T

°C
Wind Press
QNH
hPa
Press
MSL
hPa
Rain
since
9 am
mm
Dir
 
Spd
km/h
Gust
km/h
Spd
kts
Gust
kts
27/11:30pm 20.2 18.0 13.2 64 4.0 S 17 20 9 11 1018.6 1018.2 0.0
27/11:00pm 20.6 17.7 12.8 61 4.4 S 20 24 11 13 1018.8 1018.4 0.0
27/10:30pm 21.0 17.9 11.6 55 5.2 SSE 19 24 10 13 1019.0 1018.6 0.0
27/10:00pm 20.7 18.0 11.6 56 5.1 SSE 17 24 9 13 1019.1 1018.7 0.0
27/09:30pm 20.8 17.4 11.2 54 5.3 SSE 20 24 11 13 1019.0 1018.6 0.0
27/09:00pm 20.7 17.7 11.9 57 4.9 SE 19 20 10 11 1019.1 1018.7 0.0
27/08:30pm 20.7 17.5 11.3 55 5.2 SE 19 24 10 13 1018.9 1018.5 0.0
27/08:00pm 20.5 17.5 12.7 61 4.4 SE 20 24 11 13 1018.8 1018.4 0.0
27/07:30pm 20.5 17.8 13.0 62 4.3 SE 19 22 10 12 1018.6 1018.2 0.0
27/07:00pm 20.4 17.9 12.4 60 4.5 ESE 17 19 9 10 1018.2 1017.8 0.0
27/06:30pm 20.2 17.7 12.4 61 4.4 ESE 17 19 9 10 1017.8 1017.4 0.0
27/06:00pm 20.1 17.7 12.6 62 4.2 ESE 17 22 9 12 1017.5 1017.1 0.0
27/05:30pm 20.1 17.6 12.3 61 4.4 ESE 17 22 9 12 1017.2 1016.8 0.0
27/05:00pm 20.2 17.8 12.7 62 4.2 SE 17 22 9 12 1016.9 1016.5 0.0
27/04:30pm 20.5 18.0 12.2 59 4.7 SE 17 20 9 11 1016.7 1016.3 0.0
27/04:00pm 20.5 18.0 12.2 59 4.7 SE 17 22 9 12 1016.4 1016.0 0.0
27/03:30pm 20.8 17.9 12.2 58 4.8 SE 19 24 10 13 1016.2 1015.8 0.0
27/03:00pm 21.0 18.1 12.2 57 5.0 SSE 19 22 10 12 1016.1 1015.7 0.0
27/02:30pm 21.4 18.4 12.5 57 5.1 SE 20 24 11 13 1016.1 1015.7 0.0
27/02:00pm 21.5 18.6 12.4 56 5.2 SSE 19 28 10 15 1016.0 1015.6 0.0
27/01:30pm 21.4 18.4 12.0 55 5.3 SE 19 30 10 16 1016.1 1015.7 0.0
27/01:00pm 21.7 18.7 12.0 54 5.5 SSE 19 24 10 13 1016.2 1015.8 0.0
27/12:30pm 21.3 18.2 11.6 54 5.4 SSE 19 28 10 15 1016.5 1016.1 0.0
27/12:00pm 21.0 17.7 10.8 52 5.6 SSE 19 26 10 14 1016.9 1016.5 0.0
27/11:30am 21.2 17.9 11.5 54 5.4 SSE 20 26 11 14 1017.2 1016.8 0.0
27/11:00am 20.6 17.0 10.4 52 5.5 S 20 28 11 15 1017.5 1017.1 0.0
27/10:30am 20.3 16.3 10.4 53 5.4 S 22 32 12 17 1017.7 1017.3 0.0
27/10:00am 20.1 15.7 10.5 54 5.2 S 24 30 13 16 1017.9 1017.5 0.0
27/09:30am 19.7 15.2 9.9 53 5.3 S 24 32 13 17 1017.8 1017.4 0.0
27/09:00am 19.6 15.2 10.3 55 5.0 SSE 24 32 13 17 1017.7 1017.3 0.0
27/08:30am 18.8 14.6 9.6 55 4.9 S 22 28 12 15 1017.5 1017.1 0.0
27/08:00am 18.2 14.3 8.7 54 4.9 S 19 24 10 13 1017.3 1016.9 0.0
27/07:30am 17.3 13.0 7.9 54 4.8 SSW 20 24 11 13 1017.0 1016.6 0.0
27/07:00am 16.2 12.2 6.6 53 4.7 SW 17 20 9 11 1016.9 1016.5 0.0
27/06:30am 15.1 10.6 6.1 55 4.4 SW 19 22 10 12 1016.6 1016.2 0.0
27/06:00am 15.3 11.2 6.1 54 4.4 SW 17 19 9 10 1016.5 1016.1 0.0
27/05:30am 15.6 11.8 5.8 52 4.7 WSW 15 22 8 12 1016.1 1015.7 0.0
27/05:00am 15.4 12.9 6.4 55 4.4 W 9 13 5 7 1015.8 1015.4 0.0
27/04:30am 15.2 12.0 4.9 50 4.9 SW 11 22 6 12 1015.5 1015.1 0.0
27/04:00am 15.5 11.1 4.8 49 5.0 SW 17 28 9 15 1015.2 1014.8 0.0
27/03:30am 15.8 10.4 4.5 47 5.3 SW 22 28 12 15 1015.1 1014.7 0.0
27/03:00am 15.3 9.6 4.9 50 4.9 SW 24 28 13 15 1015.2 1014.8 0.0
27/02:30am 15.5 10.2 4.8 49 5.1 WSW 22 24 12 13 1015.3 1014.9 0.0
27/02:00am 16.0 11.3 6.2 52 4.8 WSW 20 24 11 13 1015.6 1015.2 0.0
27/01:30am 15.6 11.3 6.9 56 4.3 W 19 22 10 12 1015.7 1015.3 0.0
27/01:00am 15.6 11.5 6.3 54 4.5 W 17 17 9 9 1015.9 1015.5 0.0
27/12:30am 15.8 11.3 6.0 52 4.8 W 19 22 10 12 1015.8 1015.4 0.0
27/12:00am 16.2 12.4 5.8 50 5.0 W 15 19 8 10 1016.1 1015.7 0.0
 
Date/Time
EST
Tmp

°C
App
Tmp
°C
Dew
Point
°C
Rel
Hum
%
Delta-T

°C
Wind Press
QNH
hPa
Press
MSL
hPa
Rain
since
9 am
mm
Dir
 
Spd
km/h
Gust
km/h
Spd
kts
Gust
kts
26/11:30pm 16.1 12.0 4.2 45 5.6 WSW 15 22 8 12 1016.0 1015.6 0.0
26/11:00pm 16.2 12.0 3.6 43 5.8 SW 15 19 8 10 1016.2 1015.8 0.0
26/10:30pm 16.6 11.5 4.0 43 5.9 SW 20 26 11 14 1016.0 1015.6 0.0
26/10:00pm 16.9 11.4 3.9 42 6.1 SSW 22 37 12 20 1016.2 1015.8 0.0
26/09:30pm 17.5 9.8 3.4 39 6.6 SW 33 48 18 26 1016.1 1015.7 0.0
26/09:00pm 18.1 10.5 2.8 36 7.1 SSW 32 39 17 21 1016.1 1015.7 0.0
26/08:30pm 18.5 11.6 2.4 34 7.4 SSW 28 39 15 21 1015.9 1015.5 0.0
26/08:00pm 19.1 12.0 1.6 31 8.0 SW 28 33 15 18 1015.6 1015.2 0.0
26/07:30pm 18.9 13.6 3.1 35 7.4 SSW 20 24 11 13 1015.1 1014.7 0.0
26/07:00pm 19.3 13.6 3.1 34 7.6 SSW 22 26 12 14 1014.5 1014.1 0.0
26/06:30pm 20.1 14.3 2.5 31 8.2 SSW 22 30 12 16 1014.0 1013.5 0.0
26/06:00pm 20.5 15.2 2.8 31 8.3 SW 20 28 11 15 1013.3 1012.9 0.0
26/05:30pm 21.0 15.3 2.8 30 8.6 SW 22 32 12 17 1012.9 1012.5 0.0
26/05:00pm 22.3 16.1 2.4 27 9.4 SW 24 33 13 18 1012.4 1012.0 0.0
26/04:30pm 23.1 17.6 2.0 25 10.0 SW 20 32 11 17 1011.9 1011.5 0.0
26/04:00pm 24.2 18.9 2.9 25 10.3 WSW 20 26 11 14 1011.5 1011.1 0.0
26/03:30pm 24.3 18.9 2.5 24 10.5 WSW 20 28 11 15 1011.3 1010.9 0.0
26/03:00pm 24.1 16.7 1.7 23 10.6 SW 30 43 16 23 1011.0 1010.6 0.0
26/02:30pm 24.8 19.8 3.5 25 10.5 W 19 32 10 17 1010.8 1010.4 0.0
26/02:00pm 24.3 19.4 4.1 27 10.0 W 19 28 10 15 1010.6 1010.2 0.0
26/01:30pm 24.1 18.6 4.0 27 9.9 W 22 33 12 18 1010.5 1010.1 0.0
26/01:00pm 23.2 16.7 2.7 26 9.8 W 26 43 14 23 1010.6 1010.2 0.0
26/12:30pm 22.8 17.9 3.9 29 9.2 W 19 30 10 16 1011.1 1010.7 0.0
26/12:00pm 22.8 17.6 3.4 28 9.4 W 20 37 11 20 1011.2 1010.8 0.0
26/11:30am 23.4 19.3 4.4 29 9.4 W 15 24 8 13 1011.7 1011.3 0.0
26/11:00am 22.2 17.3 4.3 31 8.8 WSW 19 32 10 17 1012.2 1011.8 0.0
26/10:30am 21.5 15.9 3.7 31 8.6 WSW 22 32 12 17 1012.5 1012.1 0.0
26/10:00am 21.2 18.1 5.5 36 7.8 W 11 17 6 9 1012.9 1012.5 0.0
26/09:30am 20.1 15.7 4.6 36 7.5 SW 17 33 9 18 1013.1 1012.7 0.0
26/09:00am 19.3 13.5 4.6 38 7.1 SW 24 37 13 20 1013.1 1012.7 0.0
26/08:30am 18.9 13.8 3.9 37 7.1 SW 20 32 11 17 1013.1 1012.7 0.0
26/08:00am 18.9 12.8 2.7 34 7.5 SSW 24 37 13 20 1012.9 1012.5 0.0
26/07:30am 18.7 13.2 1.7 32 7.7 SW 20 30 11 16 1012.7 1012.3 0.0
26/07:15am 18.8 11.7 1.3 31 7.9 SW 28 46 15 25 1012.4 1012.0 0.0
26/07:00am 18.8 13.2 1.3 31 7.9 WSW 20 32 11 17 1012.2 1011.8 0.0
26/06:30am 19.2 14.5 1.2 30 8.1 SW 15 35 8 19 1011.8 1011.4 0.0
26/06:00am 19.2 15.6 3.0 34 7.6 SW 11 24 6 13 1011.3 1010.9 0.0
26/05:30am 20.0 16.5 5.6 39 7.1 SW 13 28 7 15 1010.8 1010.4 0.0
26/05:00am 20.8 14.4 5.2 36 7.7 WSW 28 39 15 21 1010.1 1009.7 0.0
26/04:40am 21.0 14.0 5.8 37 7.6 SW 32 50 17 27 1009.7 1009.3 0.0
26/04:30am 21.2 13.9 5.5 36 7.8 SW 33 46 18 25 1009.7 1009.3 0.0
26/04:09am 21.5 14.8 5.4 35 8.0 SW 30 48 16 26 1009.6 1009.2 0.0
26/04:00am 21.8 14.6 5.7 35 8.1 SW 33 44 18 24 1009.6 1009.2 0.0
26/03:30am 21.6 17.5 8.8 44 6.8 WSW 20 30 11 16 1009.6 1009.2 0.0
26/03:00am 21.0 19.1 12.9 60 4.6 W 15 24 8 13 1009.4 1009.0 0.0
26/02:30am 20.4 16.8 15.2 72 3.1 WNW 28 33 15 18 1009.3 1008.9 0.0
26/02:00am 21.4 17.1 15.5 69 3.5 WNW 32 39 17 21 1009.2 1008.8 0.0
26/01:30am 21.6 18.1 16.6 73 3.0 WNW 30 39 16 21 1009.3 1008.9 0.0
26/01:00am 21.9 20.5 17.1 74 3.0 NW 20 26 11 14 1009.5 1009.1 0.0
26/12:30am 22.4 20.4 17.3 73 3.2 NW 24 35 13 19 1009.5 1009.1 0.0
26/12:00am 21.6 20.1 17.6 78 2.5 NNW 22 26 12 14 1009.7 1009.3 0.0
 
Date/Time
EST
Tmp

°C
App
Tmp
°C
Dew
Point
°C
Rel
Hum
%
Delta-T

°C
Wind Press
QNH
hPa
Press
MSL
hPa
Rain
since
9 am
mm
Dir
 
Spd
km/h
Gust
km/h
Spd
kts
Gust
kts
25/11:30pm 21.7 20.5 18.3 81 2.1 NNW 22 30 12 16 1010.0 1009.6 0.0
25/11:00pm 21.5 20.8 18.3 82 2.0 NW 19 24 10 13 1010.2 1009.8 0.0
25/10:30pm 22.0 20.3 18.2 79 2.4 NW 24 32 13 17 1010.6 1010.2 0.0
25/10:00pm 22.2 20.1 18.0 77 2.6 NW 26 33 14 18 1010.7 1010.3 0.0
25/09:30pm 22.4 20.7 16.2 68 3.8 NW 20 26 11 14 1010.8 1010.4 0.0
25/09:00pm 22.7 20.8 15.8 65 4.2 NW 20 26 11 14 1010.8 1010.4 0.0
25/08:30pm 22.9 20.5 16.4 67 4.0 NNW 24 30 13 16 1010.6 1010.2 0.0
25/08:00pm 23.4 21.6 17.8 71 3.5 NNW 24 28 13 15 1010.4 1010.0 0.0
25/07:30pm 23.8 24.6 17.3 67 4.0 N 9 19 5 10 1010.1 1009.7 0.0
25/07:00pm 23.8 24.4 16.8 65 4.3 N 9 17 5 9 1009.8 1009.4 0.0
25/06:30pm 23.9 23.8 15.9 61 4.9 N 11 24 6 13 1009.5 1009.1 0.0
25/06:00pm 24.0 21.3 14.7 56 5.6 N 22 28 12 15 1009.2 1008.8 0.0
25/05:30pm 24.2 21.6 14.9 56 5.6 NNE 22 28 12 15 1009.0 1008.6 0.0
25/05:00pm 25.6 24.5 14.4 50 6.7 NNE 13 20 7 11 1008.7 1008.3 0.0
25/04:30pm 26.7 26.2 13.8 45 7.7 NE 9 15 5 8 1008.5 1008.1 0.0
25/04:00pm 26.2 25.4 14.0 47 7.3 NE 11 17 6 9 1008.4 1008.0 0.0
25/03:30pm 27.4 27.8 15.4 48 7.3 NNE 7 13 4 7 1008.4 1008.0 0.0
25/03:00pm 27.9 28.2 17.1 51 6.8 NE 11 17 6 9 1008.4 1008.0 0.0
25/02:30pm 28.9 27.8 15.4 44 8.3 NNE 15 17 8 9 1008.3 1007.9 0.0
25/02:00pm 29.0 29.0 15.2 43 8.5 N 9 17 5 9 1008.3 1007.9 0.0
25/01:30pm 28.7 29.2 15.6 45 8.1 N 7 11 4 6 1008.5 1008.1 0.0
25/01:00pm 28.0 29.0 16.9 51 7.0 NNW 7 9 4 5 1008.9 1008.5 0.0
25/12:30pm 28.4 28.8 17.3 51 7.0 NNW 11 15 6 8 1009.6 1009.2 0.0

Latest Capital City Observations: Canberra | Sydney | Melbourne | Brisbane | Adelaide | Perth | Hobart | Darwin

Other Formats:

Comma delimited format used in spreadsheet applications
http://www.bom.gov.au/fwo/IDQ60901/IDQ60901.94584.axf

JavaScript Object Notation format (JSON) in row-major order
http://www.bom.gov.au/fwo/IDQ60901/IDQ60901.94584.json